Time;durP1;ratioP1;P1;durP2;ratioP2;P2;SDS_P1;SDS_P2;PMS_P1;PMS_P2;Temp;Humidity;BMP_temperature;BMP_pressure;BME280_temperature;BME280_humidity;BME280_pressure;Samples;Min_cycle;Max_cycle;Signal;HPM_P1;HPM_P2
2021/09/27 00:00:53;;;;;;;13.90;12.52;;;17.30;98.20;;;;;;5013083;28;20232;-88
2021/09/27 00:03:19;;;;;;;14.90;13.43;;;17.20;98.80;;;;;;5010788;28;20701;-89
2021/09/27 00:05:46;;;;;;;15.48;14.07;;;17.30;99.30;;;;;;5011088;28;20251;-90
2021/09/27 00:08:12;;;;;;;14.50;13.07;;;17.40;99.00;;;;;;5012469;28;20192;-88
2021/09/27 00:10:45;;;;;;;13.07;11.82;;;17.50;98.40;;;;;;4996669;28;20228;-89
2021/09/27 00:13:13;;;;;;;13.60;12.18;;;17.60;97.70;;;;;;5009000;28;20543;-89
2021/09/27 00:15:43;;;;;;;12.52;11.40;;;17.60;97.20;;;;;;5012851;28;20205;-88
2021/09/27 00:18:09;;;;;;;12.77;11.57;;;17.50;97.10;;;;;;5007336;28;20193;-89
2021/09/27 00:20:45;;;;;;;13.43;12.30;;;17.70;96.40;;;;;;5010459;28;20231;-89
2021/09/27 00:23:12;;;;;;;14.60;13.07;;;17.80;95.60;;;;;;5012140;28;20205;-89
2021/09/27 00:25:38;;;;;;;13.02;11.82;;;17.70;96.00;;;;;;5012390;28;20698;-88
2021/09/27 00:28:05;;;;;;;13.27;12.10;;;17.80;95.80;;;;;;4996440;28;20205;-88
2021/09/27 00:30:32;;;;;;;14.77;13.48;;;17.80;95.70;;;;;;5012252;28;20213;-88
2021/09/27 00:32:58;;;;;;;14.85;13.45;;;17.80;95.80;;;;;;4993277;28;20197;-88
2021/09/27 00:35:27;;;;;;;14.38;12.88;;;17.70;96.30;;;;;;5013294;28;20221;-88
2021/09/27 00:37:54;;;;;;;14.90;13.63;;;17.60;97.50;;;;;;5011447;28;20190;-87
2021/09/27 00:40:24;;;;;;;13.52;12.38;;;17.60;97.90;;;;;;5012832;28;20292;-88
2021/09/27 00:42:50;;;;;;;13.13;12.02;;;17.50;97.90;;;;;;5011822;28;20177;-88
2021/09/27 00:45:19;;;;;;;13.18;11.98;;;17.60;97.50;;;;;;4994579;28;20206;-89
2021/09/27 00:47:45;;;;;;;13.85;12.65;;;17.70;97.00;;;;;;5011088;28;20193;-88
2021/09/27 00:50:12;;;;;;;13.32;12.23;;;17.80;96.60;;;;;;5013011;28;20293;-88
2021/09/27 00:52:38;;;;;;;13.60;12.25;;;17.80;96.60;;;;;;5011563;28;20208;-88
2021/09/27 00:55:07;;;;;;;14.40;13.13;;;17.90;96.60;;;;;;5009957;28;20222;-88
2021/09/27 00:57:33;;;;;;;13.57;12.48;;;17.90;96.30;;;;;;5015560;28;20608;-87
2021/09/27 00:59:59;;;;;;;13.38;12.02;;;17.90;96.00;;;;;;5031647;28;20247;-88
2021/09/27 01:02:25;;;;;;;13.50;12.13;;;17.90;95.70;;;;;;5032963;28;20242;-87
2021/09/27 01:04:53;;;;;;;12.88;11.68;;;17.80;95.70;;;;;;5028424;28;20206;-87
2021/09/27 01:07:47;;;;;;;11.73;10.57;;;17.80;95.30;;;;;;5014037;28;20200;-88
2021/09/27 01:10:37;;;;;;;11.82;10.68;;;17.80;94.60;;;;;;5013228;28;20354;-88
2021/09/27 01:13:12;;;;;;;12.85;11.65;;;17.80;94.50;;;;;;5000343;28;20221;-87
2021/09/27 01:16:01;;;;;;;11.20;10.23;;;17.70;94.10;;;;;;5013690;28;20326;-88
2021/09/27 01:18:44;;;;;;;12.30;11.35;;;17.80;93.50;;;;;;5014251;28;20182;-88
2021/09/27 01:21:32;;;;;;;12.13;10.93;;;17.80;93.60;;;;;;5012628;28;20225;-88
2021/09/27 01:24:33;;;;;;;11.80;10.80;;;17.70;94.20;;;;;;5014919;28;20205;-88
2021/09/27 01:27:33;;;;;;;12.48;11.27;;;17.60;94.50;;;;;;5013084;28;20181;-88
2021/09/27 01:30:23;;;;;;;13.00;11.85;;;17.60;94.50;;;;;;5002830;28;20221;-88
2021/09/27 01:33:10;;;;;;;13.65;12.43;;;17.60;94.80;;;;;;5014876;28;20197;-88
2021/09/27 01:36:04;;;;;;;13.23;12.05;;;17.70;94.80;;;;;;5013900;28;21750;-88
2021/09/27 01:39:11;;;;;;;12.55;11.25;;;17.60;95.10;;;;;;5014273;28;20181;-88
2021/09/27 01:42:03;;;;;;;13.88;12.55;;;17.70;94.70;;;;;;5013724;28;20841;-88
2021/09/27 01:44:45;;;;;;;12.38;11.38;;;17.70;94.20;;;;;;4985537;28;20265;-87
2021/09/27 01:47:38;;;;;;;13.25;12.15;;;17.70;94.50;;;;;;5012162;28;20276;-88
2021/09/27 01:50:24;;;;;;;14.05;12.85;;;17.70;94.40;;;;;;5011624;28;20316;-87
2021/09/27 01:53:11;;;;;;;12.60;11.63;;;17.60;94.60;;;;;;5000032;28;20192;-88
2021/09/27 01:56:01;;;;;;;13.88;12.65;;;17.60;94.80;;;;;;5010909;28;20243;-88
2021/09/27 01:58:51;;;;;;;14.10;12.95;;;17.60;95.10;;;;;;5008030;28;20200;-88
2021/09/27 02:01:43;;;;;;;14.77;13.45;;;17.50;95.00;;;;;;5008222;28;20248;-88
2021/09/27 02:04:21;;;;;;;13.82;12.73;;;17.50;95.20;;;;;;5003267;28;20294;-88
2021/09/27 02:06:50;;;;;;;14.10;12.93;;;17.50;95.00;;;;;;5009034;28;20252;-88
2021/09/27 02:09:24;;;;;;;14.35;13.18;;;17.40;95.10;;;;;;5009437;28;20212;-88
2021/09/27 02:12:03;;;;;;;13.40;12.20;;;17.30;95.10;;;;;;5007782;28;20186;-88
2021/09/27 02:14:36;;;;;;;14.60;13.30;;;17.30;94.80;;;;;;4990733;28;20220;-87
2021/09/27 02:17:13;;;;;;;16.63;15.13;;;17.30;95.30;;;;;;4992353;28;20189;-88
2021/09/27 02:19:51;;;;;;;16.95;15.55;;;17.30;95.40;;;;;;5005337;28;20263;-88
2021/09/27 02:22:33;;;;;;;16.70;15.13;;;17.30;95.80;;;;;;4992158;28;20306;-88
2021/09/27 02:25:31;;;;;;;16.42;15.02;;;17.20;96.30;;;;;;5006492;28;20813;-88
2021/09/27 02:28:00;;;;;;;16.98;15.57;;;17.20;97.20;;;;;;5010525;28;20195;-88
2021/09/27 02:30:43;;;;;;;17.52;16.02;;;17.20;96.20;;;;;;4992123;28;20617;-87
2021/09/27 02:33:13;;;;;;;16.83;15.23;;;17.20;96.30;;;;;;5003860;28;20290;-88
2021/09/27 02:36:04;;;;;;;17.88;16.20;;;17.20;96.00;;;;;;4981973;28;20209;-88
2021/09/27 02:39:01;;;;;;;17.52;15.93;;;17.10;96.30;;;;;;5009258;28;20201;-88
2021/09/27 02:41:32;;;;;;;15.57;14.18;;;17.10;96.50;;;;;;5009777;28;20189;-88
2021/09/27 02:43:58;;;;;;;17.80;16.08;;;17.00;97.60;;;;;;5009480;28;20190;-88
2021/09/27 02:46:24;;;;;;;16.63;15.13;;;17.10;96.60;;;;;;4991593;28;20827;-88
2021/09/27 02:48:56;;;;;;;16.45;15.05;;;17.00;96.30;;;;;;5009390;28;20722;-88
2021/09/27 02:51:23;;;;;;;14.63;13.32;;;17.10;96.10;;;;;;5009590;28;20191;-88
2021/09/27 02:53:49;;;;;;;15.40;14.10;;;17.00;95.80;;;;;;5009280;28;20206;-87
2021/09/27 02:56:34;;;;;;;14.45;13.13;;;17.00;95.70;;;;;;5007268;28;20243;-88
2021/09/27 02:59:15;;;;;;;15.02;13.63;;;17.00;95.80;;;;;;5009474;28;20716;-89
2021/09/27 03:01:50;;;;;;;15.05;13.75;;;17.10;95.00;;;;;;5009636;28;20699;-88
2021/09/27 03:04:42;;;;;;;13.23;12.13;;;17.10;94.80;;;;;;5007595;28;20193;-89
2021/09/27 03:07:29;;;;;;;15.02;13.82;;;17.20;94.50;;;;;;5007817;28;20192;-88
2021/09/27 03:10:15;;;;;;;15.70;14.20;;;17.20;94.50;;;;;;5002883;28;20217;-87
2021/09/27 03:12:50;;;;;;;15.23;13.82;;;17.20;94.30;;;;;;5008939;28;20340;-88
2021/09/27 03:15:42;;;;;;;13.77;12.48;;;17.10;94.50;;;;;;5006878;28;20213;-89
2021/09/27 03:18:19;;;;;;;12.88;11.77;;;17.20;94.20;;;;;;5011611;28;20208;-88
2021/09/27 03:21:15;;;;;;;14.02;12.82;;;17.20;93.50;;;;;;5007656;28;20269;-88
2021/09/27 03:23:56;;;;;;;14.38;13.18;;;17.30;93.00;;;;;;5012607;28;20271;-88
2021/09/27 03:26:27;;;;;;;14.15;12.95;;;17.30;92.60;;;;;;5012606;28;20248;-88
2021/09/27 03:29:31;;;;;;;14.20;13.10;;;17.10;93.00;;;;;;5009712;28;20219;-88
2021/09/27 03:32:21;;;;;;;14.25;12.98;;;17.20;92.50;;;;;;5004186;28;20216;-87
2021/09/27 03:35:18;;;;;;;13.25;12.05;;;17.20;93.10;;;;;;5011809;28;20300;-89
2021/09/27 03:38:04;;;;;;;13.27;12.07;;;17.20;91.70;;;;;;5012764;28;20534;-88
2021/09/27 03:40:51;;;;;;;14.88;13.60;;;17.20;91.80;;;;;;5014232;28;20205;-89
2021/09/27 03:43:38;;;;;;;14.38;13.05;;;17.20;92.30;;;;;;5022875;28;20182;-87
2021/09/27 03:46:13;;;;;;;13.98;12.68;;;17.00;93.00;;;;;;5029229;28;20185;-87
2021/09/27 03:49:03;;;;;;;14.70;13.55;;;17.00;93.60;;;;;;5022639;28;20661;-89
2021/09/27 03:51:55;;;;;;;12.15;10.95;;;17.00;93.90;;;;;;5012542;28;20196;-88
2021/09/27 03:54:46;;;;;;;12.90;11.45;;;16.90;92.80;;;;;;5011281;28;20641;-88
2021/09/27 03:57:19;;;;;;;11.43;10.30;;;16.90;92.60;;;;;;5011380;28;20195;-88
2021/09/27 03:59:50;;;;;;;13.18;11.98;;;16.90;92.30;;;;;;5010569;28;20208;-88
2021/09/27 04:02:30;;;;;;;11.13;10.18;;;17.00;92.30;;;;;;5012207;28;20204;-88
2021/09/27 04:05:05;;;;;;;13.95;12.85;;;17.00;91.60;;;;;;5010679;28;20204;-87
2021/09/27 04:07:58;;;;;;;15.55;14.02;;;16.90;92.00;;;;;;5009627;28;20193;-88
2021/09/27 04:10:39;;;;;;;14.77;13.48;;;16.80;93.10;;;;;;5008145;28;20219;-88
2021/09/27 04:13:32;;;;;;;15.55;14.25;;;16.70;93.70;;;;;;4998468;28;20303;-87
2021/09/27 04:16:15;;;;;;;13.82;12.57;;;16.70;94.90;;;;;;5011497;28;20392;-89
2021/09/27 04:18:53;;;;;;;13.20;12.10;;;16.70;93.70;;;;;;5011010;28;20185;-88
2021/09/27 04:21:43;;;;;;;11.00;10.10;;;16.70;92.70;;;;;;5010599;28;20185;-88
2021/09/27 04:24:12;;;;;;;13.20;11.90;;;16.80;92.00;;;;;;5009424;28;20275;-88
2021/09/27 04:26:59;;;;;;;12.25;11.05;;;16.70;91.80;;;;;;5010621;28;20261;-88
2021/09/27 04:30:00;;;;;;;13.40;12.20;;;16.70;92.00;;;;;;5009939;28;20267;-90
2021/09/27 04:32:43;;;;;;;14.23;12.93;;;16.70;92.50;;;;;;5010969;28;20270;-87
2021/09/27 04:35:12;;;;;;;13.15;11.95;;;16.70;92.60;;;;;;5009997;28;20216;-89
2021/09/27 04:37:39;;;;;;;14.02;12.63;;;16.70;93.10;;;;;;5008357;28;20220;-88
2021/09/27 04:40:08;;;;;;;12.63;11.63;;;16.70;92.90;;;;;;5011224;28;20209;-88
2021/09/27 04:42:55;;;;;;;14.75;13.45;;;16.70;92.70;;;;;;5018668;28;20275;-88
2021/09/27 04:45:41;;;;;;;14.73;13.45;;;16.60;93.10;;;;;;5018810;28;20701;-87
2021/09/27 04:48:32;;;;;;;14.48;13.15;;;16.60;93.10;;;;;;5011021;28;20362;-88
2021/09/27 04:51:34;;;;;;;12.85;11.75;;;16.60;92.90;;;;;;5002746;28;20250;-88
2021/09/27 04:54:32;;;;;;;12.55;11.35;;;16.50;91.30;;;;;;5013172;28;20216;-88
2021/09/27 04:56:58;;;;;;;14.55;11.80;;;16.40;91.70;;;;;;4987444;28;20205;-88
2021/09/27 04:59:32;;;;;;;11.15;10.18;;;16.50;92.00;;;;;;5013880;28;20210;-89
2021/09/27 05:02:13;;;;;;;10.70;9.90;;;16.50;91.50;;;;;;5015614;28;20188;-88
2021/09/27 05:04:53;;;;;;;12.40;11.23;;;16.60;91.80;;;;;;5017822;28;20650;-87
2021/09/27 05:07:43;;;;;;;10.32;9.52;;;16.50;91.00;;;;;;5017490;28;20201;-88
2021/09/27 05:10:46;;;;;;;11.18;10.10;;;16.40;91.60;;;;;;5012081;28;20701;-88
2021/09/27 05:13:45;;;;;;;10.68;9.77;;;16.40;91.20;;;;;;4978759;28;20274;-87
2021/09/27 05:16:28;;;;;;;9.40;8.65;;;16.40;91.40;;;;;;5012204;28;20795;-88
2021/09/27 05:19:15;;;;;;;10.23;9.30;;;16.40;90.50;;;;;;5011450;28;20220;-88
2021/09/27 05:22:01;;;;;;;10.63;9.73;;;16.40;91.10;;;;;;5008995;28;20191;-88
2021/09/27 05:24:56;;;;;;;11.10;10.20;;;16.40;91.90;;;;;;5033133;28;20194;-89
2021/09/27 05:27:39;;;;;;;12.00;10.88;;;16.40;92.20;;;;;;5038360;28;20233;-86
2021/09/27 05:30:23;;;;;;;9.55;8.75;;;16.40;92.90;;;;;;5018655;28;20199;-90
2021/09/27 05:33:01;;;;;;;10.95;10.05;;;16.40;92.20;;;;;;5010597;28;20850;-88
2021/09/27 05:36:11;;;;;;;10.95;10.15;;;16.50;92.40;;;;;;5006349;28;20216;-88
2021/09/27 05:39:00;;;;;;;11.63;10.73;;;16.60;92.30;;;;;;5000716;28;20201;-88
2021/09/27 05:42:00;;;;;;;12.10;10.93;;;16.60;92.80;;;;;;5008928;28;20188;-88
2021/09/27 05:44:53;;;;;;;12.48;11.48;;;16.60;92.20;;;;;;5005322;28;20225;-88
2021/09/27 05:47:44;;;;;;;10.60;9.80;;;16.60;92.90;;;;;;5008888;28;20286;-88
2021/09/27 05:50:13;;;;;;;12.70;11.60;;;16.60;92.70;;;;;;5010349;28;20213;-88
2021/09/27 05:52:56;;;;;;;15.27;12.02;;;16.50;93.50;;;;;;5011223;28;20192;-88
2021/09/27 05:56:01;;;;;;;11.02;10.13;;;16.60;93.30;;;;;;5015015;28;20623;-89
2021/09/27 05:58:36;;;;;;;10.80;9.90;;;16.60;92.90;;;;;;5025313;28;20211;-87
2021/09/27 06:01:23;;;;;;;11.07;10.10;;;16.50;93.10;;;;;;5024840;28;20494;-88
2021/09/27 06:04:17;;;;;;;12.50;11.50;;;16.50;93.50;;;;;;5026149;28;20193;-87
2021/09/27 06:07:05;;;;;;;12.50;11.20;;;16.50;92.70;;;;;;5013865;28;20191;-87
2021/09/27 06:09:31;;;;;;;16.38;13.63;;;16.50;93.60;;;;;;5010232;28;20242;-87
2021/09/27 06:12:23;;;;;;;13.07;11.93;;;16.40;94.40;;;;;;5008200;28;20237;-88
2021/09/27 06:14:51;;;;;;;13.03;11.93;;;16.40;94.80;;;;;;5012595;28;20957;-87
2021/09/27 06:17:38;;;;;;;13.65;12.45;;;16.50;94.80;;;;;;5014125;28;20326;-89
2021/09/27 06:20:12;;;;;;;14.25;13.05;;;16.50;94.90;;;;;;5016193;28;20663;-87
2021/09/27 06:23:11;;;;;;;13.27;12.20;;;16.40;94.90;;;;;;5029750;28;20179;-87
2021/09/27 06:25:37;;;;;;;12.50;11.30;;;16.50;95.40;;;;;;5002441;28;20212;-85
2021/09/27 06:28:24;;;;;;;14.30;13.10;;;16.60;94.70;;;;;;5019032;28;20186;-85
2021/09/27 06:31:04;;;;;;;14.05;12.75;;;16.60;95.00;;;;;;5006175;28;20207;-86
2021/09/27 06:34:10;;;;;;;13.32;12.13;;;16.50;95.80;;;;;;5005465;28;20221;-87
2021/09/27 06:36:36;;;;;;;13.50;12.23;;;16.60;95.40;;;;;;5011162;28;20214;-87
2021/09/27 06:39:14;;;;;;;13.35;12.05;;;16.70;95.30;;;;;;5013192;28;20192;-87
2021/09/27 06:41:41;;;;;;;14.07;12.77;;;16.80;95.60;;;;;;5012912;28;20188;-88
2021/09/27 06:44:07;;;;;;;13.43;12.23;;;16.90;95.70;;;;;;5009956;28;20193;-87
2021/09/27 06:46:32;;;;;;;13.77;12.68;;;16.80;95.00;;;;;;5008309;28;20286;-88
2021/09/27 06:48:59;;;;;;;13.88;12.68;;;16.80;96.30;;;;;;5007951;28;20192;-88
2021/09/27 06:51:25;;;;;;;14.70;13.40;;;16.80;95.60;;;;;;5010577;28;20184;-88
2021/09/27 06:53:50;;;;;;;15.50;14.00;;;16.80;95.90;;;;;;5011929;28;20255;-88
2021/09/27 06:56:16;;;;;;;15.85;14.45;;;16.60;97.50;;;;;;5014170;28;20648;-87
2021/09/27 06:58:42;;;;;;;15.82;14.40;;;16.60;98.30;;;;;;5014115;28;20190;-90
2021/09/27 07:01:08;;;;;;;15.80;14.23;;;16.60;98.40;;;;;;5011342;28;20774;-88
2021/09/27 07:03:34;;;;;;;15.23;13.93;;;16.70;98.20;;;;;;5005337;28;20686;-88
2021/09/27 07:05:59;;;;;;;17.07;15.47;;;16.70;98.30;;;;;;5011678;28;20681;-88
2021/09/27 07:08:25;;;;;;;16.40;14.87;;;16.90;96.90;;;;;;5010076;28;20209;-87
2021/09/27 07:10:52;;;;;;;16.87;15.37;;;16.90;96.40;;;;;;5010407;28;20347;-89
2021/09/27 07:13:19;;;;;;;17.50;15.77;;;16.90;98.00;;;;;;5009013;28;20709;-88
2021/09/27 07:15:45;;;;;;;17.80;16.20;;;16.80;98.70;;;;;;5010905;28;20214;-89
2021/09/27 07:18:11;;;;;;;19.13;17.30;;;16.70;99.90;;;;;;5008313;28;20195;-89
2021/09/27 07:20:37;;;;;;;17.60;15.90;;;16.90;99.10;;;;;;5008571;28;20217;-89
2021/09/27 07:23:03;;;;;;;17.23;15.57;;;16.90;98.40;;;;;;5022278;28;20184;-88
2021/09/27 07:25:32;;;;;;;17.50;16.00;;;16.90;98.50;;;;;;5011655;28;20287;-89
2021/09/27 07:27:59;;;;;;;17.87;16.30;;;17.00;98.30;;;;;;5010201;28;20249;-88
2021/09/27 07:30:26;;;;;;;18.23;16.53;;;17.00;99.80;;;;;;5012181;28;20200;-88
2021/09/27 07:32:52;;;;;;;18.50;16.70;;;17.00;99.70;;;;;;5011099;28;20276;-88
2021/09/27 07:35:21;;;;;;;17.70;16.03;;;17.10;99.50;;;;;;5010952;28;20237;-88
2021/09/27 07:37:47;;;;;;;19.10;17.30;;;17.10;98.50;;;;;;5013546;28;20277;-88
2021/09/27 07:40:17;;;;;;;17.80;16.07;;;17.10;98.60;;;;;;5012191;28;20274;-88
2021/09/27 07:42:43;;;;;;;18.47;16.60;;;17.20;98.80;;;;;;5020155;28;20219;-87
2021/09/27 07:45:12;;;;;;;19.27;17.47;;;17.10;98.90;;;;;;5033538;28;20237;-88
2021/09/27 07:47:38;;;;;;;19.37;17.67;;;17.00;99.50;;;;;;5037192;28;20177;-87
2021/09/27 07:50:06;;;;;;;18.20;16.60;;;17.00;99.80;;;;;;5017545;28;20206;-90
2021/09/27 07:52:32;;;;;;;18.57;16.90;;;16.90;99.90;;;;;;4999386;28;20194;-88
2021/09/27 07:54:58;;;;;;;18.13;16.37;;;16.90;99.90;;;;;;5014195;28;20217;-88
2021/09/27 07:57:24;;;;;;;18.07;16.47;;;16.90;99.90;;;;;;5013309;28;20610;-88
2021/09/27 07:59:53;;;;;;;17.30;15.80;;;17.10;98.70;;;;;;5034488;28;20195;-88
2021/09/27 08:02:20;;;;;;;16.90;15.37;;;17.30;98.70;;;;;;5027233;28;20196;-88
2021/09/27 08:04:46;;;;;;;17.80;16.02;;;17.50;97.50;;;;;;5013497;28;20199;-87
2021/09/27 08:07:13;;;;;;;17.20;15.60;;;17.50;98.40;;;;;;4994625;28;20191;-89
2021/09/27 08:09:39;;;;;;;18.55;16.73;;;17.40;98.00;;;;;;5010578;28;21013;-88
2021/09/27 08:12:05;;;;;;;16.83;15.23;;;17.30;99.30;;;;;;5001769;28;20204;-88
2021/09/27 08:14:31;;;;;;;17.13;15.53;;;17.50;97.60;;;;;;5007902;28;20273;-88
2021/09/27 08:16:56;;;;;;;17.23;15.50;;;17.60;97.30;;;;;;5014534;28;20276;-88
2021/09/27 08:19:24;;;;;;;17.03;15.30;;;17.40;97.80;;;;;;5017100;28;20214;-89
2021/09/27 08:21:54;;;;;;;17.17;15.47;;;17.40;97.30;;;;;;5009748;28;20192;-88
2021/09/27 08:24:20;;;;;;;15.40;13.93;;;17.50;98.90;;;;;;5012176;28;20188;-88
2021/09/27 08:26:46;;;;;;;15.67;14.20;;;17.40;98.00;;;;;;5017536;28;20276;-88
2021/09/27 08:29:12;;;;;;;14.65;13.35;;;17.40;97.10;;;;;;5008581;28;20611;-88
2021/09/27 08:31:40;;;;;;;15.73;14.33;;;17.50;97.30;;;;;;5013553;28;20308;-88
2021/09/27 08:34:06;;;;;;;16.23;14.83;;;17.50;97.70;;;;;;4997406;28;20595;-88
2021/09/27 08:36:33;;;;;;;16.20;14.70;;;17.50;95.90;;;;;;5013934;28;20195;-87
2021/09/27 08:39:02;;;;;;;16.13;14.73;;;17.50;97.40;;;;;;5013273;28;20197;-89
2021/09/27 08:41:40;;;;;;;16.40;14.80;;;17.60;98.10;;;;;;5008076;28;20688;-88
2021/09/27 08:44:20;;;;;;;17.05;14.88;;;17.70;96.80;;;;;;5010060;28;20188;-90
2021/09/27 08:46:54;;;;;;;15.52;14.13;;;17.90;96.20;;;;;;5012050;28;20198;-88
2021/09/27 08:49:22;;;;;;;15.25;13.75;;;18.00;94.80;;;;;;5009396;28;20207;-88
2021/09/27 08:51:49;;;;;;;15.70;14.25;;;18.30;94.20;;;;;;4999411;28;20189;-88
2021/09/27 08:54:22;;;;;;;15.45;14.15;;;18.30;93.70;;;;;;4992771;28;20211;-89
2021/09/27 08:56:48;;;;;;;15.90;14.30;;;18.50;93.40;;;;;;5007821;28;20185;-88
2021/09/27 08:59:52;;;;;;;14.98;13.57;;;18.70;93.00;;;;;;5012988;28;20207;-89
2021/09/27 09:02:52;;;;;;;14.27;12.77;;;18.70;92.30;;;;;;5003449;28;20204;-87
2021/09/27 09:05:23;;;;;;;12.80;11.60;;;19.00;91.10;;;;;;5007173;28;20223;-87
2021/09/27 09:08:20;;;;;;;12.52;11.02;;;19.00;91.80;;;;;;5011037;28;20196;-87
2021/09/27 09:10:46;;;;;;;12.07;10.90;;;19.10;89.40;;;;;;5010781;28;20217;-87
2021/09/27 09:13:16;;;;;;;12.13;11.15;;;19.20;89.90;;;;;;5011600;28;20674;-88
2021/09/27 09:15:56;;;;;;;11.88;10.88;;;19.10;89.90;;;;;;4995459;28;20213;-87
2021/09/27 09:18:31;;;;;;;11.75;10.60;;;19.20;89.70;;;;;;5009713;28;20186;-88
2021/09/27 09:21:19;;;;;;;10.52;9.60;;;19.50;88.50;;;;;;5011718;28;20209;-88
2021/09/27 09:23:51;;;;;;;11.50;10.48;;;19.60;87.50;;;;;;5016770;28;20174;-87
2021/09/27 09:26:32;;;;;;;11.98;10.35;;;19.80;88.10;;;;;;5010829;28;20204;-88
2021/09/27 09:28:59;;;;;;;10.95;10.13;;;19.80;87.70;;;;;;5008768;28;20190;-87
2021/09/27 09:31:33;;;;;;;10.38;9.45;;;20.10;85.70;;;;;;5011237;28;20193;-87
2021/09/27 09:34:06;;;;;;;10.68;9.73;;;20.20;83.80;;;;;;4996965;28;20205;-88
2021/09/27 09:36:36;;;;;;;9.52;8.73;;;20.50;84.30;;;;;;5014155;28;20239;-88
2021/09/27 09:39:17;;;;;;;10.10;9.30;;;20.50;83.60;;;;;;5013995;28;20181;-88
2021/09/27 09:41:56;;;;;;;9.98;9.07;;;20.60;83.40;;;;;;5014421;28;20696;-88
2021/09/27 09:44:41;;;;;;;10.35;9.43;;;20.60;82.40;;;;;;5022817;28;20694;-88
2021/09/27 09:47:19;;;;;;;9.57;8.88;;;20.80;81.60;;;;;;5014169;28;20192;-89
2021/09/27 09:50:20;;;;;;;8.80;8.00;;;21.10;79.80;;;;;;4979796;28;20766;-89
2021/09/27 09:52:48;;;;;;;10.07;9.05;;;21.20;79.90;;;;;;5011407;28;20237;-87
2021/09/27 09:55:17;;;;;;;8.02;7.32;;;21.20;80.00;;;;;;5012126;28;20703;-89
2021/09/27 09:57:57;;;;;;;10.20;8.45;;;21.40;77.50;;;;;;5008836;28;20331;-89
2021/09/27 10:00:42;;;;;;;8.13;7.50;;;21.50;79.60;;;;;;5006510;28;20212;-88
2021/09/27 10:03:11;;;;;;;7.63;7.03;;;21.70;80.60;;;;;;5012394;28;20207;-88
2021/09/27 10:05:43;;;;;;;7.78;7.18;;;21.90;77.10;;;;;;5011223;28;20204;-87
2021/09/27 10:08:36;;;;;;;8.32;7.57;;;22.10;75.30;;;;;;4978161;28;20209;-87
2021/09/27 10:11:09;;;;;;;8.15;7.45;;;22.30;76.10;;;;;;5005844;28;20260;-88
2021/09/27 10:13:34;;;;;;;8.13;7.43;;;22.50;76.60;;;;;;5014454;28;20186;-87
2021/09/27 10:16:34;;;;;;;7.40;6.75;;;22.30;74.90;;;;;;4998450;28;20759;-88
2021/09/27 10:19:21;;;;;;;7.72;7.03;;;22.70;71.30;;;;;;5006986;28;20198;-87
2021/09/27 10:22:06;;;;;;;7.78;7.03;;;22.70;73.20;;;;;;5006707;28;20201;-88
2021/09/27 10:24:46;;;;;;;7.75;6.90;;;22.90;71.60;;;;;;5030516;28;20262;-88
2021/09/27 10:27:21;;;;;;;7.97;7.38;;;23.00;72.20;;;;;;5030451;28;20232;-89
2021/09/27 10:29:48;;;;;;;7.70;6.72;;;22.80;72.80;;;;;;5010553;28;20216;-88
2021/09/27 10:33:04;;;;;;;7.18;6.45;;;22.80;72.20;;;;;;5008637;28;20208;-87
2021/09/27 10:35:45;;;;;;;6.78;6.10;;;22.60;73.60;;;;;;4979322;28;20272;-88
2021/09/27 10:38:15;;;;;;;8.00;6.82;;;22.70;73.10;;;;;;5008452;28;20566;-88
2021/09/27 10:40:46;;;;;;;6.80;6.20;;;22.90;73.00;;;;;;5026716;28;20213;-85
2021/09/27 10:43:15;;;;;;;6.45;5.85;;;23.10;70.00;;;;;;5009767;28;20221;-87
2021/09/27 10:45:46;;;;;;;6.50;6.00;;;23.00;70.40;;;;;;4997117;28;20189;-87
2021/09/27 10:48:12;;;;;;;6.95;6.35;;;23.00;72.10;;;;;;5028359;28;20419;-88
2021/09/27 10:50:58;;;;;;;5.78;5.38;;;23.30;70.40;;;;;;5013227;28;20220;-87
2021/09/27 10:53:45;;;;;;;6.75;5.97;;;22.80;70.10;;;;;;5015696;28;20190;-87
2021/09/27 10:56:14;;;;;;;6.97;6.18;;;22.60;73.10;;;;;;5022566;28;20296;-88
2021/09/27 10:58:47;;;;;;;8.40;6.25;;;22.80;71.90;;;;;;5016898;28;20500;-87
2021/09/27 11:01:39;;;;;;;5.72;5.32;;;22.60;73.80;;;;;;4975623;28;1136583;-87
2021/09/27 11:04:15;;;;;;;5.20;4.70;;;22.80;71.80;;;;;;5007905;28;20213;-88
2021/09/27 11:06:43;;;;;;;6.38;4.70;;;23.00;68.80;;;;;;5009026;28;20223;-88
2021/09/27 11:09:30;;;;;;;5.00;4.50;;;23.00;67.00;;;;;;5009045;28;20194;-88
2021/09/27 11:12:08;;;;;;;4.63;4.22;;;23.10;68.50;;;;;;5007786;28;20217;-88
2021/09/27 11:14:40;;;;;;;5.00;4.30;;;23.20;68.50;;;;;;5007225;28;20217;-88
2021/09/27 11:17:06;;;;;;;6.32;4.55;;;23.30;65.60;;;;;;5005531;28;20259;-90
2021/09/27 11:19:39;;;;;;;4.82;4.45;;;23.10;66.80;;;;;;4991112;28;20264;-90
2021/09/27 11:22:14;;;;;;;5.57;4.90;;;23.00;67.00;;;;;;5012728;28;20220;-90
2021/09/27 11:24:43;;;;;;;5.35;4.95;;;23.10;65.10;;;;;;5034136;28;20208;-89
2021/09/27 11:27:31;;;;;;;5.25;4.85;;;23.10;66.70;;;;;;5034737;28;20228;-89
2021/09/27 11:30:23;;;;;;;5.13;4.72;;;23.10;66.60;;;;;;5015752;28;20200;-89
2021/09/27 11:32:54;;;;;;;5.22;4.72;;;23.20;68.10;;;;;;4993746;28;20565;-88
2021/09/27 11:35:39;;;;;;;5.32;4.60;;;23.20;66.40;;;;;;5008980;28;21122;-90
2021/09/27 11:38:24;;;;;;;5.25;4.80;;;23.60;66.50;;;;;;5014887;28;20535;-89
2021/09/27 11:40:59;;;;;;;5.85;5.10;;;23.50;64.50;;;;;;5017315;28;20220;-88
2021/09/27 11:43:34;;;;;;;7.13;5.57;;;23.70;65.30;;;;;;5012050;28;20216;-89
2021/09/27 11:46:07;;;;;;;5.45;4.95;;;23.80;65.20;;;;;;5016163;28;20235;-89
2021/09/27 11:48:44;;;;;;;5.47;5.07;;;23.80;64.80;;;;;;5024987;28;20233;-89
2021/09/27 11:51:12;;;;;;;7.93;5.18;;;23.60;63.10;;;;;;5027758;28;20216;-88
2021/09/27 11:53:53;;;;;;;5.90;5.40;;;23.40;66.00;;;;;;5015356;28;20181;-87
2021/09/27 11:56:25;;;;;;;5.10;4.60;;;23.90;65.90;;;;;;5012520;28;20304;-88
2021/09/27 11:59:14;;;;;;;5.30;4.80;;;23.80;63.30;;;;;;5013909;28;20190;-89
2021/09/27 12:01:58;;;;;;;4.78;4.47;;;23.90;64.70;;;;;;5013922;28;20279;-88
2021/09/27 12:04:53;;;;;;;5.13;4.63;;;23.70;64.80;;;;;;5012960;28;20264;-89
2021/09/27 12:07:23;;;;;;;6.25;4.90;;;23.90;64.90;;;;;;5015503;28;20247;-89
2021/09/27 12:10:07;;;;;;;5.20;4.80;;;24.00;64.50;;;;;;5010317;28;20209;-89
2021/09/27 12:13:10;;;;;;;5.13;4.70;;;24.30;62.80;;;;;;5021539;28;20840;-89
2021/09/27 12:15:40;;;;;;;5.28;4.78;;;24.80;62.30;;;;;;5028168;28;20276;-89
2021/09/27 12:18:07;;;;;;;5.38;4.97;;;24.90;58.20;;;;;;5016147;28;20193;-89
2021/09/27 12:20:40;;;;;;;5.03;4.63;;;25.10;60.60;;;;;;5015079;28;20224;-90
2021/09/27 12:23:10;;;;;;;5.45;4.90;;;25.80;57.50;;;;;;5020017;28;20637;-90
2021/09/27 12:25:41;;;;;;;7.03;4.75;;;25.60;57.80;;;;;;5015609;28;20221;-90
2021/09/27 12:28:12;;;;;;;4.63;4.32;;;25.80;56.80;;;;;;5017225;28;20185;-90
2021/09/27 12:30:45;;;;;;;5.10;4.70;;;25.50;57.20;;;;;;4977564;28;20244;-90
2021/09/27 12:33:16;;;;;;;5.07;4.70;;;25.80;56.60;;;;;;5013636;28;20200;-89
2021/09/27 12:35:47;;;;;;;7.05;4.65;;;25.70;57.10;;;;;;5012579;28;20225;-90
2021/09/27 12:38:19;;;;;;;5.45;4.95;;;25.90;57.60;;;;;;5009758;28;20240;-91
2021/09/27 12:40:49;;;;;;;5.25;4.75;;;25.60;57.60;;;;;;5008902;28;20585;-89
2021/09/27 12:43:18;;;;;;;4.93;4.43;;;25.30;59.00;;;;;;5008244;28;20677;-90
2021/09/27 12:45:47;;;;;;;5.28;4.80;;;25.00;58.20;;;;;;5008066;28;20190;-90
2021/09/27 12:48:26;;;;;;;4.57;4.28;;;24.80;60.60;;;;;;5007723;28;20271;-90
2021/09/27 12:51:19;;;;;;;4.50;4.20;;;25.00;60.60;;;;;;5011603;28;20217;-91
2021/09/27 12:54:14;;;;;;;5.15;4.68;;;25.00;59.10;;;;;;5005571;28;20639;-89
2021/09/27 12:56:40;;;;;;;5.18;4.55;;;25.10;59.80;;;;;;5001246;28;20268;-89
2021/09/27 12:59:13;;;;;;;5.57;4.50;;;25.10;59.20;;;;;;5011722;28;20272;-89
2021/09/27 13:01:44;;;;;;;6.53;4.97;;;25.10;60.10;;;;;;5006485;28;20204;-89
2021/09/27 13:04:34;;;;;;;4.65;4.25;;;25.30;59.20;;;;;;5010532;28;20288;-89
2021/09/27 13:07:07;;;;;;;5.90;4.15;;;25.40;59.90;;;;;;5010768;28;20620;-90
2021/09/27 13:09:55;;;;;;;5.25;4.32;;;25.20;57.70;;;;;;5008499;28;20744;-90
2021/09/27 13:12:29;;;;;;;4.68;4.28;;;25.00;57.40;;;;;;5009126;28;20658;-90
2021/09/27 13:15:13;;;;;;;5.13;4.22;;;25.00;57.30;;;;;;5013915;28;20217;-90
2021/09/27 13:18:04;;;;;;;4.85;4.35;;;25.00;58.00;;;;;;5015732;28;20201;-90
2021/09/27 13:20:36;;;;;;;7.07;4.30;;;24.50;60.50;;;;;;5005349;28;20216;-91
2021/09/27 13:23:05;;;;;;;4.60;4.20;;;24.20;61.90;;;;;;5015308;28;20182;-90
2021/09/27 13:25:39;;;;;;;4.80;4.40;;;24.10;60.60;;;;;;5028022;28;20192;-89